sensor_id;sensor_type;location;lat;lon;timestamp;temperature;humidity
24522;DHT22;12680;57.804;12.190;2024-02-15T00:00:52;5.70;99.90
24522;DHT22;12680;57.804;12.190;2024-02-15T00:03:20;5.70;99.90
24522;DHT22;12680;57.804;12.190;2024-02-15T00:05:48;5.70;99.90
24522;DHT22;12680;57.804;12.190;2024-02-15T00:08:15;5.70;99.90
24522;DHT22;12680;57.804;12.190;2024-02-15T00:10:42;5.70;99.90
24522;DHT22;12680;57.804;12.190;2024-02-15T00:13:10;7.00;99.90
24522;DHT22;12680;57.804;12.190;2024-02-15T00:15:37;7.20;99.90
24522;DHT22;12680;57.804;12.190;2024-02-15T00:18:04;5.80;99.90
24522;DHT22;12680;57.804;12.190;2024-02-15T00:20:31;5.80;99.90
24522;DHT22;12680;57.804;12.190;2024-02-15T00:23:00;5.80;99.90
24522;DHT22;12680;57.804;12.190;2024-02-15T00:25:27;5.70;99.90
24522;DHT22;12680;57.804;12.190;2024-02-15T00:27:54;5.70;99.90
24522;DHT22;12680;57.804;12.190;2024-02-15T00:30:21;5.80;99.90
24522;DHT22;12680;57.804;12.190;2024-02-15T00:32:48;5.90;99.90
24522;DHT22;12680;57.804;12.190;2024-02-15T00:35:15;5.90;99.90
24522;DHT22;12680;57.804;12.190;2024-02-15T00:37:43;6.00;99.90
24522;DHT22;12680;57.804;12.190;2024-02-15T00:40:11;6.00;99.90
24522;DHT22;12680;57.804;12.190;2024-02-15T00:42:38;6.10;99.90
24522;DHT22;12680;57.804;12.190;2024-02-15T00:45:06;6.10;99.90
24522;DHT22;12680;57.804;12.190;2024-02-15T00:47:36;6.10;99.90
24522;DHT22;12680;57.804;12.190;2024-02-15T00:50:05;6.20;99.90
24522;DHT22;12680;57.804;12.190;2024-02-15T00:52:32;6.10;99.90
24522;DHT22;12680;57.804;12.190;2024-02-15T00:54:59;6.10;99.90
24522;DHT22;12680;57.804;12.190;2024-02-15T00:57:26;6.10;99.90
24522;DHT22;12680;57.804;12.190;2024-02-15T00:59:53;6.10;99.90
24522;DHT22;12680;57.804;12.190;2024-02-15T01:02:20;6.10;99.90
24522;DHT22;12680;57.804;12.190;2024-02-15T01:04:46;6.00;99.90
24522;DHT22;12680;57.804;12.190;2024-02-15T01:07:13;6.00;99.90
24522;DHT22;12680;57.804;12.190;2024-02-15T01:09:40;6.10;99.90
24522;DHT22;12680;57.804;12.190;2024-02-15T01:12:07;6.10;99.90
24522;DHT22;12680;57.804;12.190;2024-02-15T01:14:34;6.20;99.90
24522;DHT22;12680;57.804;12.190;2024-02-15T01:17:01;6.20;99.90
24522;DHT22;12680;57.804;12.190;2024-02-15T01:19:28;5.10;99.90
24522;DHT22;12680;57.804;12.190;2024-02-15T01:21:56;6.30;99.90
24522;DHT22;12680;57.804;12.190;2024-02-15T01:24:24;6.20;99.90
24522;DHT22;12680;57.804;12.190;2024-02-15T01:26:52;6.20;99.90
24522;DHT22;12680;57.804;12.190;2024-02-15T01:29:20;7.00;99.90
24522;DHT22;12680;57.804;12.190;2024-02-15T01:31:47;6.20;99.90
24522;DHT22;12680;57.804;12.190;2024-02-15T01:34:14;6.10;99.90
24522;DHT22;12680;57.804;12.190;2024-02-15T01:36:41;6.20;99.90
24522;DHT22;12680;57.804;12.190;2024-02-15T01:39:08;6.10;99.90
24522;DHT22;12680;57.804;12.190;2024-02-15T01:41:35;6.00;99.90
24522;DHT22;12680;57.804;12.190;2024-02-15T01:44:02;5.80;99.90
24522;DHT22;12680;57.804;12.190;2024-02-15T01:46:29;5.70;99.90
24522;DHT22;12680;57.804;12.190;2024-02-15T01:48:56;5.40;99.90
24522;DHT22;12680;57.804;12.190;2024-02-15T01:53:53;5.20;99.90
24522;DHT22;12680;57.804;12.190;2024-02-15T01:56:22;4.90;99.90
24522;DHT22;12680;57.804;12.190;2024-02-15T01:58:49;4.80;99.90
24522;DHT22;12680;57.804;12.190;2024-02-15T02:01:16;4.70;99.90
24522;DHT22;12680;57.804;12.190;2024-02-15T02:03:44;4.60;99.90
24522;DHT22;12680;57.804;12.190;2024-02-15T02:06:11;4.50;99.90
24522;DHT22;12680;57.804;12.190;2024-02-15T02:08:38;4.40;99.90
24522;DHT22;12680;57.804;12.190;2024-02-15T02:11:05;4.40;99.90
24522;DHT22;12680;57.804;12.190;2024-02-15T02:13:32;4.40;99.90
24522;DHT22;12680;57.804;12.190;2024-02-15T02:15:59;4.50;99.90
24522;DHT22;12680;57.804;12.190;2024-02-15T02:18:27;4.60;99.90
24522;DHT22;12680;57.804;12.190;2024-02-15T02:20:53;4.80;99.90
24522;DHT22;12680;57.804;12.190;2024-02-15T02:23:25;5.00;99.90
24522;DHT22;12680;57.804;12.190;2024-02-15T02:25:54;5.00;99.90
24522;DHT22;12680;57.804;12.190;2024-02-15T02:28:22;5.00;99.90
24522;DHT22;12680;57.804;12.190;2024-02-15T02:30:49;5.00;99.90
24522;DHT22;12680;57.804;12.190;2024-02-15T02:33:16;4.90;99.90
24522;DHT22;12680;57.804;12.190;2024-02-15T02:35:49;4.80;99.90
24522;DHT22;12680;57.804;12.190;2024-02-15T02:38:16;4.70;99.90
24522;DHT22;12680;57.804;12.190;2024-02-15T02:40:43;4.70;99.90
24522;DHT22;12680;57.804;12.190;2024-02-15T02:43:10;4.70;99.90
24522;DHT22;12680;57.804;12.190;2024-02-15T02:45:38;4.80;99.90
24522;DHT22;12680;57.804;12.190;2024-02-15T02:48:05;5.00;99.90
24522;DHT22;12680;57.804;12.190;2024-02-15T02:50:32;5.10;99.90
24522;DHT22;12680;57.804;12.190;2024-02-15T02:52:59;5.10;99.90
24522;DHT22;12680;57.804;12.190;2024-02-15T02:55:26;5.10;99.90
24522;DHT22;12680;57.804;12.190;2024-02-15T02:57:57;5.10;99.90
24522;DHT22;12680;57.804;12.190;2024-02-15T03:00:24;5.10;99.90
24522;DHT22;12680;57.804;12.190;2024-02-15T03:02:50;8.10;99.90
24522;DHT22;12680;57.804;12.190;2024-02-15T03:05:17;5.10;99.90
24522;DHT22;12680;57.804;12.190;2024-02-15T03:07:48;5.10;99.90
24522;DHT22;12680;57.804;12.190;2024-02-15T03:10:15;5.10;99.90
24522;DHT22;12680;57.804;12.190;2024-02-15T03:12:42;5.10;99.90
24522;DHT22;12680;57.804;12.190;2024-02-15T03:15:15;5.10;99.90
24522;DHT22;12680;57.804;12.190;2024-02-15T03:17:47;5.10;99.90
24522;DHT22;12680;57.804;12.190;2024-02-15T03:20:15;6.90;99.90
24522;DHT22;12680;57.804;12.190;2024-02-15T03:22:44;5.30;99.90
24522;DHT22;12680;57.804;12.190;2024-02-15T03:25:11;5.60;99.90
24522;DHT22;12680;57.804;12.190;2024-02-15T03:27:38;5.20;99.90
24522;DHT22;12680;57.804;12.190;2024-02-15T03:30:06;5.20;99.90
24522;DHT22;12680;57.804;12.190;2024-02-15T03:32:33;5.20;99.90
24522;DHT22;12680;57.804;12.190;2024-02-15T03:35:00;5.20;99.90
24522;DHT22;12680;57.804;12.190;2024-02-15T03:37:27;5.10;99.90
24522;DHT22;12680;57.804;12.190;2024-02-15T03:39:54;5.10;99.90
24522;DHT22;12680;57.804;12.190;2024-02-15T03:42:21;5.10;99.90
24522;DHT22;12680;57.804;12.190;2024-02-15T03:44:48;5.00;99.90
24522;DHT22;12680;57.804;12.190;2024-02-15T03:47:15;7.40;99.90
24522;DHT22;12680;57.804;12.190;2024-02-15T03:49:43;4.80;99.90
24522;DHT22;12680;57.804;12.190;2024-02-15T03:52:10;4.80;99.90
24522;DHT22;12680;57.804;12.190;2024-02-15T03:54:37;4.80;99.90
24522;DHT22;12680;57.804;12.190;2024-02-15T03:57:04;4.80;99.90
24522;DHT22;12680;57.804;12.190;2024-02-15T03:59:33;5.00;99.90
24522;DHT22;12680;57.804;12.190;2024-02-15T04:02:01;5.10;99.90
24522;DHT22;12680;57.804;12.190;2024-02-15T04:04:30;5.20;99.90
24522;DHT22;12680;57.804;12.190;2024-02-15T04:06:57;5.30;99.90
24522;DHT22;12680;57.804;12.190;2024-02-15T04:09:25;5.40;99.90
24522;DHT22;12680;57.804;12.190;2024-02-15T04:11:52;5.40;99.90
24522;DHT22;12680;57.804;12.190;2024-02-15T04:14:20;5.30;99.90
24522;DHT22;12680;57.804;12.190;2024-02-15T04:16:47;5.50;99.90
24522;DHT22;12680;57.804;12.190;2024-02-15T04:24:10;5.50;99.90
24522;DHT22;12680;57.804;12.190;2024-02-15T04:26:38;7.00;99.90
24522;DHT22;12680;57.804;12.190;2024-02-15T04:29:05;5.50;99.90
24522;DHT22;12680;57.804;12.190;2024-02-15T04:31:35;5.50;99.90
24522;DHT22;12680;57.804;12.190;2024-02-15T04:34:05;5.60;99.90
24522;DHT22;12680;57.804;12.190;2024-02-15T04:36:33;5.60;99.90
24522;DHT22;12680;57.804;12.190;2024-02-15T04:39:01;5.60;99.90
24522;DHT22;12680;57.804;12.190;2024-02-15T04:41:29;5.60;99.90
24522;DHT22;12680;57.804;12.190;2024-02-15T04:43:56;5.60;99.90
24522;DHT22;12680;57.804;12.190;2024-02-15T04:46:23;8.80;99.90
24522;DHT22;12680;57.804;12.190;2024-02-15T04:48:51;5.70;99.90
24522;DHT22;12680;57.804;12.190;2024-02-15T04:51:18;5.60;99.90
24522;DHT22;12680;57.804;12.190;2024-02-15T04:53:47;5.60;99.90
24522;DHT22;12680;57.804;12.190;2024-02-15T04:56:15;5.60;99.90
24522;DHT22;12680;57.804;12.190;2024-02-15T04:58:43;5.60;99.90
24522;DHT22;12680;57.804;12.190;2024-02-15T05:01:13;5.50;99.90
24522;DHT22;12680;57.804;12.190;2024-02-15T05:03:42;5.50;99.90
24522;DHT22;12680;57.804;12.190;2024-02-15T05:06:08;5.50;99.90
24522;DHT22;12680;57.804;12.190;2024-02-15T05:08:37;5.40;99.90
24522;DHT22;12680;57.804;12.190;2024-02-15T05:11:12;5.50;99.90
24522;DHT22;12680;57.804;12.190;2024-02-15T05:13:46;5.50;99.90
24522;DHT22;12680;57.804;12.190;2024-02-15T05:16:13;5.60;99.90
24522;DHT22;12680;57.804;12.190;2024-02-15T05:18:40;5.50;99.90
24522;DHT22;12680;57.804;12.190;2024-02-15T05:21:07;5.50;99.90
24522;DHT22;12680;57.804;12.190;2024-02-15T05:23:38;5.50;99.90
24522;DHT22;12680;57.804;12.190;2024-02-15T05:26:06;5.50;99.90
24522;DHT22;12680;57.804;12.190;2024-02-15T05:28:34;5.50;99.90
24522;DHT22;12680;57.804;12.190;2024-02-15T05:31:15;5.50;99.90
24522;DHT22;12680;57.804;12.190;2024-02-15T05:33:47;5.50;99.90
24522;DHT22;12680;57.804;12.190;2024-02-15T05:36:16;5.50;99.90
24522;DHT22;12680;57.804;12.190;2024-02-15T05:38:52;5.30;99.90
24522;DHT22;12680;57.804;12.190;2024-02-15T05:41:19;5.20;99.90
24522;DHT22;12680;57.804;12.190;2024-02-15T05:43:47;5.10;99.90
24522;DHT22;12680;57.804;12.190;2024-02-15T05:46:20;5.10;99.90
24522;DHT22;12680;57.804;12.190;2024-02-15T05:48:50;5.10;99.90
24522;DHT22;12680;57.804;12.190;2024-02-15T05:51:22;5.10;99.90
24522;DHT22;12680;57.804;12.190;2024-02-15T05:53:49;5.10;99.90
24522;DHT22;12680;57.804;12.190;2024-02-15T05:56:16;5.00;99.90
24522;DHT22;12680;57.804;12.190;2024-02-15T05:58:43;5.00;99.90
24522;DHT22;12680;57.804;12.190;2024-02-15T06:01:10;4.90;99.90
24522;DHT22;12680;57.804;12.190;2024-02-15T06:03:39;4.90;99.90
24522;DHT22;12680;57.804;12.190;2024-02-15T06:06:08;5.00;99.90
24522;DHT22;12680;57.804;12.190;2024-02-15T06:08:36;5.00;99.90
24522;DHT22;12680;57.804;12.190;2024-02-15T06:11:04;6.70;99.90
24522;DHT22;12680;57.804;12.190;2024-02-15T06:13:34;5.00;99.90
24522;DHT22;12680;57.804;12.190;2024-02-15T06:16:01;4.90;99.90
24522;DHT22;12680;57.804;12.190;2024-02-15T06:18:29;4.90;99.90
24522;DHT22;12680;57.804;12.190;2024-02-15T06:20:57;4.80;99.90
24522;DHT22;12680;57.804;12.190;2024-02-15T06:23:24;4.80;99.90
24522;DHT22;12680;57.804;12.190;2024-02-15T06:25:54;4.90;99.90
24522;DHT22;12680;57.804;12.190;2024-02-15T06:28:21;5.00;99.90
24522;DHT22;12680;57.804;12.190;2024-02-15T06:31:08;5.00;99.90
24522;DHT22;12680;57.804;12.190;2024-02-15T06:33:54;5.00;99.90
24522;DHT22;12680;57.804;12.190;2024-02-15T06:36:46;5.00;99.90
24522;DHT22;12680;57.804;12.190;2024-02-15T06:39:33;4.90;99.90
24522;DHT22;12680;57.804;12.190;2024-02-15T06:42:16;4.90;99.90
24522;DHT22;12680;57.804;12.190;2024-02-15T06:44:46;4.90;99.90
24522;DHT22;12680;57.804;12.190;2024-02-15T06:47:14;4.90;99.90
24522;DHT22;12680;57.804;12.190;2024-02-15T06:49:45;5.00;99.90
24522;DHT22;12680;57.804;12.190;2024-02-15T06:52:12;5.50;99.90
24522;DHT22;12680;57.804;12.190;2024-02-15T06:54:41;5.10;99.90
24522;DHT22;12680;57.804;12.190;2024-02-15T06:57:09;7.60;99.90
24522;DHT22;12680;57.804;12.190;2024-02-15T06:59:36;5.10;99.90
24522;DHT22;12680;57.804;12.190;2024-02-15T07:02:05;5.10;99.90
24522;DHT22;12680;57.804;12.190;2024-02-15T07:04:35;5.10;99.90
24522;DHT22;12680;57.804;12.190;2024-02-15T07:07:03;5.00;99.90
24522;DHT22;12680;57.804;12.190;2024-02-15T07:09:30;5.00;99.90
24522;DHT22;12680;57.804;12.190;2024-02-15T07:11:57;4.90;99.90
24522;DHT22;12680;57.804;12.190;2024-02-15T07:14:25;4.90;99.90
24522;DHT22;12680;57.804;12.190;2024-02-15T07:16:54;4.90;99.90
24522;DHT22;12680;57.804;12.190;2024-02-15T07:19:25;4.90;99.90
24522;DHT22;12680;57.804;12.190;2024-02-15T07:21:54;4.90;99.90
24522;DHT22;12680;57.804;12.190;2024-02-15T07:24:23;5.00;99.90
24522;DHT22;12680;57.804;12.190;2024-02-15T07:26:53;5.00;99.90
24522;DHT22;12680;57.804;12.190;2024-02-15T07:29:22;5.00;99.90
24522;DHT22;12680;57.804;12.190;2024-02-15T07:31:52;5.00;99.90
24522;DHT22;12680;57.804;12.190;2024-02-15T07:34:20;5.00;99.90
24522;DHT22;12680;57.804;12.190;2024-02-15T07:36:47;5.10;99.90
24522;DHT22;12680;57.804;12.190;2024-02-15T07:39:14;5.10;99.90
24522;DHT22;12680;57.804;12.190;2024-02-15T07:41:51;5.10;99.90
24522;DHT22;12680;57.804;12.190;2024-02-15T07:44:18;5.10;99.90
24522;DHT22;12680;57.804;12.190;2024-02-15T07:46:46;5.10;99.90
24522;DHT22;12680;57.804;12.190;2024-02-15T07:49:13;5.10;99.90
24522;DHT22;12680;57.804;12.190;2024-02-15T07:51:40;5.10;99.90
24522;DHT22;12680;57.804;12.190;2024-02-15T07:54:07;5.10;99.90
24522;DHT22;12680;57.804;12.190;2024-02-15T07:56:34;7.30;99.90
24522;DHT22;12680;57.804;12.190;2024-02-15T07:59:02;5.10;99.90
24522;DHT22;12680;57.804;12.190;2024-02-15T08:01:29;5.10;99.90
24522;DHT22;12680;57.804;12.190;2024-02-15T08:03:58;6.50;99.90
24522;DHT22;12680;57.804;12.190;2024-02-15T08:06:25;5.20;99.90
24522;DHT22;12680;57.804;12.190;2024-02-15T08:08:53;5.20;99.90
24522;DHT22;12680;57.804;12.190;2024-02-15T08:11:20;5.20;99.90
24522;DHT22;12680;57.804;12.190;2024-02-15T08:13:48;5.20;99.90
24522;DHT22;12680;57.804;12.190;2024-02-15T08:16:21;5.20;99.90
24522;DHT22;12680;57.804;12.190;2024-02-15T08:18:51;4.40;99.90
24522;DHT22;12680;57.804;12.190;2024-02-15T08:21:29;5.30;99.90
24522;DHT22;12680;57.804;12.190;2024-02-15T08:23:57;5.40;99.90
24522;DHT22;12680;57.804;12.190;2024-02-15T08:26:25;5.50;99.90
24522;DHT22;12680;57.804;12.190;2024-02-15T08:28:52;5.50;99.90
24522;DHT22;12680;57.804;12.190;2024-02-15T08:31:21;5.50;99.90
24522;DHT22;12680;57.804;12.190;2024-02-15T08:33:48;5.50;99.90
24522;DHT22;12680;57.804;12.190;2024-02-15T08:36:15;5.50;99.90
24522;DHT22;12680;57.804;12.190;2024-02-15T08:38:42;5.50;99.90
24522;DHT22;12680;57.804;12.190;2024-02-15T08:41:09;8.40;99.90
24522;DHT22;12680;57.804;12.190;2024-02-15T08:43:38;5.40;99.90
24522;DHT22;12680;57.804;12.190;2024-02-15T08:46:06;5.40;99.90
24522;DHT22;12680;57.804;12.190;2024-02-15T08:48:34;6.60;99.90
24522;DHT22;12680;57.804;12.190;2024-02-15T08:51:02;5.40;99.90
24522;DHT22;12680;57.804;12.190;2024-02-15T08:53:30;5.40;99.90
24522;DHT22;12680;57.804;12.190;2024-02-15T08:56:00;7.60;99.90
24522;DHT22;12680;57.804;12.190;2024-02-15T08:58:27;5.50;99.90
24522;DHT22;12680;57.804;12.190;2024-02-15T09:00:57;7.10;99.90
24522;DHT22;12680;57.804;12.190;2024-02-15T09:03:25;5.40;99.90
24522;DHT22;12680;57.804;12.190;2024-02-15T09:05:51;5.50;99.90
24522;DHT22;12680;57.804;12.190;2024-02-15T09:08:18;5.50;99.90
24522;DHT22;12680;57.804;12.190;2024-02-15T09:10:52;5.50;99.90
24522;DHT22;12680;57.804;12.190;2024-02-15T09:13:20;5.60;99.90
24522;DHT22;12680;57.804;12.190;2024-02-15T09:15:47;5.50;99.90
24522;DHT22;12680;57.804;12.190;2024-02-15T09:18:14;5.60;99.90
24522;DHT22;12680;57.804;12.190;2024-02-15T09:20:41;5.60;99.90
24522;DHT22;12680;57.804;12.190;2024-02-15T09:23:11;5.70;99.90
24522;DHT22;12680;57.804;12.190;2024-02-15T09:25:38;5.70;99.90
24522;DHT22;12680;57.804;12.190;2024-02-15T09:28:06;5.80;99.90
24522;DHT22;12680;57.804;12.190;2024-02-15T09:30:32;7.20;99.90
24522;DHT22;12680;57.804;12.190;2024-02-15T09:33:02;6.70;99.90
24522;DHT22;12680;57.804;12.190;2024-02-15T09:35:32;5.90;99.90
24522;DHT22;12680;57.804;12.190;2024-02-15T09:37:59;5.90;99.90
24522;DHT22;12680;57.804;12.190;2024-02-15T09:40:26;6.00;99.90
24522;DHT22;12680;57.804;12.190;2024-02-15T09:42:55;7.30;99.90
24522;DHT22;12680;57.804;12.190;2024-02-15T09:47:51;6.10;99.90
24522;DHT22;12680;57.804;12.190;2024-02-15T09:50:20;6.30;99.90
24522;DHT22;12680;57.804;12.190;2024-02-15T09:52:51;6.40;99.90
24522;DHT22;12680;57.804;12.190;2024-02-15T09:55:20;6.40;99.90
24522;DHT22;12680;57.804;12.190;2024-02-15T09:57:50;6.40;99.90
24522;DHT22;12680;57.804;12.190;2024-02-15T10:00:17;6.40;99.90
24522;DHT22;12680;57.804;12.190;2024-02-15T10:02:47;6.30;99.90
24522;DHT22;12680;57.804;12.190;2024-02-15T10:05:14;8.20;99.90
24522;DHT22;12680;57.804;12.190;2024-02-15T10:07:42;6.30;99.90
24522;DHT22;12680;57.804;12.190;2024-02-15T10:10:19;6.20;99.90
24522;DHT22;12680;57.804;12.190;2024-02-15T10:12:48;6.20;99.90
24522;DHT22;12680;57.804;12.190;2024-02-15T10:15:31;6.20;99.90
24522;DHT22;12680;57.804;12.190;2024-02-15T10:18:04;6.20;99.90
24522;DHT22;12680;57.804;12.190;2024-02-15T10:20:33;6.20;99.90
24522;DHT22;12680;57.804;12.190;2024-02-15T10:25:36;6.30;99.90
24522;DHT22;12680;57.804;12.190;2024-02-15T10:28:10;6.40;99.90
24522;DHT22;12680;57.804;12.190;2024-02-15T10:30:39;6.50;99.90
24522;DHT22;12680;57.804;12.190;2024-02-15T10:33:07;6.60;99.90
24522;DHT22;12680;57.804;12.190;2024-02-15T10:35:37;6.70;99.90
24522;DHT22;12680;57.804;12.190;2024-02-15T10:38:10;6.80;99.90
24522;DHT22;12680;57.804;12.190;2024-02-15T10:40:39;7.00;99.90
24522;DHT22;12680;57.804;12.190;2024-02-15T10:43:09;7.10;99.90
24522;DHT22;12680;57.804;12.190;2024-02-15T10:45:40;7.20;99.90
24522;DHT22;12680;57.804;12.190;2024-02-15T10:48:08;7.20;99.90
24522;DHT22;12680;57.804;12.190;2024-02-15T10:50:39;7.20;99.90
24522;DHT22;12680;57.804;12.190;2024-02-15T10:53:21;8.10;99.90
24522;DHT22;12680;57.804;12.190;2024-02-15T10:58:33;7.30;99.90
24522;DHT22;12680;57.804;12.190;2024-02-15T11:01:06;7.40;99.90
24522;DHT22;12680;57.804;12.190;2024-02-15T11:03:36;8.10;99.90
24522;DHT22;12680;57.804;12.190;2024-02-15T11:06:09;7.40;99.90
24522;DHT22;12680;57.804;12.190;2024-02-15T11:08:38;7.50;99.90
24522;DHT22;12680;57.804;12.190;2024-02-15T11:11:05;7.60;99.90
24522;DHT22;12680;57.804;12.190;2024-02-15T11:13:33;7.60;99.90
24522;DHT22;12680;57.804;12.190;2024-02-15T11:16:00;7.60;99.90
24522;DHT22;12680;57.804;12.190;2024-02-15T11:18:47;7.70;99.90
24522;DHT22;12680;57.804;12.190;2024-02-15T11:21:55;7.70;99.90
24522;DHT22;12680;57.804;12.190;2024-02-15T11:24:26;7.70;99.90
24522;DHT22;12680;57.804;12.190;2024-02-15T11:26:58;9.80;99.90
24522;DHT22;12680;57.804;12.190;2024-02-15T11:29:56;7.80;99.90
24522;DHT22;12680;57.804;12.190;2024-02-15T11:35:13;7.80;99.90
24522;DHT22;12680;57.804;12.190;2024-02-15T11:40:20;7.70;99.90
24522;DHT22;12680;57.804;12.190;2024-02-15T11:43:10;7.70;99.90
24522;DHT22;12680;57.804;12.190;2024-02-15T11:45:37;7.70;99.90
24522;DHT22;12680;57.804;12.190;2024-02-15T11:48:09;7.80;99.90
24522;DHT22;12680;57.804;12.190;2024-02-15T11:50:40;9.70;99.90
24522;DHT22;12680;57.804;12.190;2024-02-15T11:53:09;7.80;99.90
24522;DHT22;12680;57.804;12.190;2024-02-15T11:55:38;8.30;99.90
24522;DHT22;12680;57.804;12.190;2024-02-15T11:58:07;9.70;99.90
24522;DHT22;12680;57.804;12.190;2024-02-15T12:00:34;8.60;99.90
24522;DHT22;12680;57.804;12.190;2024-02-15T12:03:20;7.70;99.90
24522;DHT22;12680;57.804;12.190;2024-02-15T12:06:18;7.60;99.90
24522;DHT22;12680;57.804;12.190;2024-02-15T12:09:04;7.60;99.90
24522;DHT22;12680;57.804;12.190;2024-02-15T12:11:57;7.60;99.90
24522;DHT22;12680;57.804;12.190;2024-02-15T12:14:43;7.60;99.90
24522;DHT22;12680;57.804;12.190;2024-02-15T12:17:29;7.50;99.90
24522;DHT22;12680;57.804;12.190;2024-02-15T12:20:15;9.20;99.90
24522;DHT22;12680;57.804;12.190;2024-02-15T12:22:47;7.40;99.90
24522;DHT22;12680;57.804;12.190;2024-02-15T12:25:16;7.40;99.90
24522;DHT22;12680;57.804;12.190;2024-02-15T12:27:44;7.40;99.90
24522;DHT22;12680;57.804;12.190;2024-02-15T12:30:15;7.40;99.90
24522;DHT22;12680;57.804;12.190;2024-02-15T12:32:42;7.30;99.90
24522;DHT22;12680;57.804;12.190;2024-02-15T12:35:11;7.30;99.90
24522;DHT22;12680;57.804;12.190;2024-02-15T12:37:44;7.20;99.90
24522;DHT22;12680;57.804;12.190;2024-02-15T12:40:16;7.20;99.90
24522;DHT22;12680;57.804;12.190;2024-02-15T12:42:45;7.20;99.90
24522;DHT22;12680;57.804;12.190;2024-02-15T12:45:17;7.10;99.90
24522;DHT22;12680;57.804;12.190;2024-02-15T12:47:52;7.10;99.90
24522;DHT22;12680;57.804;12.190;2024-02-15T12:50:21;7.10;99.90
24522;DHT22;12680;57.804;12.190;2024-02-15T12:52:49;7.10;99.90
24522;DHT22;12680;57.804;12.190;2024-02-15T12:55:18;7.10;99.90
24522;DHT22;12680;57.804;12.190;2024-02-15T12:57:53;7.00;99.90
24522;DHT22;12680;57.804;12.190;2024-02-15T13:00:27;7.00;99.90
24522;DHT22;12680;57.804;12.190;2024-02-15T13:03:01;6.90;99.90
24522;DHT22;12680;57.804;12.190;2024-02-15T13:05:31;6.90;99.90
24522;DHT22;12680;57.804;12.190;2024-02-15T13:07:59;6.90;99.90
24522;DHT22;12680;57.804;12.190;2024-02-15T13:10:27;6.80;99.90
24522;DHT22;12680;57.804;12.190;2024-02-15T13:12:55;8.70;99.90
24522;DHT22;12680;57.804;12.190;2024-02-15T13:15:23;6.80;99.90
24522;DHT22;12680;57.804;12.190;2024-02-15T13:17:54;6.80;99.90
24522;DHT22;12680;57.804;12.190;2024-02-15T13:20:23;6.80;99.90
24522;DHT22;12680;57.804;12.190;2024-02-15T13:23:10;8.80;99.90
24522;DHT22;12680;57.804;12.190;2024-02-15T13:25:52;6.80;99.90
24522;DHT22;12680;57.804;12.190;2024-02-15T13:28:19;6.90;99.90
24522;DHT22;12680;57.804;12.190;2024-02-15T13:30:47;6.90;99.90
24522;DHT22;12680;57.804;12.190;2024-02-15T13:33:16;8.30;99.90
24522;DHT22;12680;57.804;12.190;2024-02-15T13:35:43;7.00;99.90
24522;DHT22;12680;57.804;12.190;2024-02-15T13:38:11;7.00;99.90
24522;DHT22;12680;57.804;12.190;2024-02-15T13:40:42;7.20;99.90
24522;DHT22;12680;57.804;12.190;2024-02-15T13:43:11;7.00;99.90
24522;DHT22;12680;57.804;12.190;2024-02-15T13:45:41;7.00;99.90
24522;DHT22;12680;57.804;12.190;2024-02-15T13:48:09;7.00;99.90
24522;DHT22;12680;57.804;12.190;2024-02-15T13:50:37;7.00;99.90
24522;DHT22;12680;57.804;12.190;2024-02-15T13:53:06;6.90;99.90
24522;DHT22;12680;57.804;12.190;2024-02-15T13:55:33;6.90;99.90
24522;DHT22;12680;57.804;12.190;2024-02-15T13:58:01;6.80;99.90
24522;DHT22;12680;57.804;12.190;2024-02-15T14:00:28;6.80;99.90
24522;DHT22;12680;57.804;12.190;2024-02-15T14:03:01;8.80;99.90
24522;DHT22;12680;57.804;12.190;2024-02-15T14:05:30;6.70;99.90
24522;DHT22;12680;57.804;12.190;2024-02-15T14:08:02;8.90;99.90
24522;DHT22;12680;57.804;12.190;2024-02-15T14:10:31;6.70;99.90
24522;DHT22;12680;57.804;12.190;2024-02-15T14:12:58;6.70;99.90
24522;DHT22;12680;57.804;12.190;2024-02-15T14:15:26;6.70;99.90
24522;DHT22;12680;57.804;12.190;2024-02-15T14:17:53;6.60;99.90
24522;DHT22;12680;57.804;12.190;2024-02-15T14:20:20;7.30;99.90
24522;DHT22;12680;57.804;12.190;2024-02-15T14:22:49;6.60;99.90
24522;DHT22;12680;57.804;12.190;2024-02-15T14:25:23;6.60;99.90
24522;DHT22;12680;57.804;12.190;2024-02-15T14:27:49;8.30;99.90
24522;DHT22;12680;57.804;12.190;2024-02-15T14:30:16;6.60;99.90
24522;DHT22;12680;57.804;12.190;2024-02-15T14:33:01;6.50;99.90
24522;DHT22;12680;57.804;12.190;2024-02-15T14:35:36;6.50;99.90
24522;DHT22;12680;57.804;12.190;2024-02-15T14:38:05;6.50;99.90
24522;DHT22;12680;57.804;12.190;2024-02-15T14:40:41;8.80;99.90
24522;DHT22;12680;57.804;12.190;2024-02-15T14:43:11;8.30;99.90
24522;DHT22;12680;57.804;12.190;2024-02-15T14:45:45;6.50;99.90
24522;DHT22;12680;57.804;12.190;2024-02-15T14:48:12;6.50;99.90
24522;DHT22;12680;57.804;12.190;2024-02-15T14:50:41;6.50;99.90
24522;DHT22;12680;57.804;12.190;2024-02-15T14:53:09;6.40;99.90
24522;DHT22;12680;57.804;12.190;2024-02-15T14:55:36;6.40;99.90
24522;DHT22;12680;57.804;12.190;2024-02-15T14:58:06;8.30;99.90
24522;DHT22;12680;57.804;12.190;2024-02-15T15:00:40;6.30;99.90
24522;DHT22;12680;57.804;12.190;2024-02-15T15:03:12;6.30;99.90
24522;DHT22;12680;57.804;12.190;2024-02-15T15:05:41;6.20;99.90
24522;DHT22;12680;57.804;12.190;2024-02-15T15:08:27;6.30;99.90
24522;DHT22;12680;57.804;12.190;2024-02-15T15:11:12;6.30;99.90
24522;DHT22;12680;57.804;12.190;2024-02-15T15:13:58;6.20;99.90
24522;DHT22;12680;57.804;12.190;2024-02-15T15:16:25;6.20;99.90
24522;DHT22;12680;57.804;12.190;2024-02-15T15:18:52;6.20;99.90
24522;DHT22;12680;57.804;12.190;2024-02-15T15:21:20;6.10;99.90
24522;DHT22;12680;57.804;12.190;2024-02-15T15:23:49;6.10;99.90
24522;DHT22;12680;57.804;12.190;2024-02-15T15:26:20;6.10;99.90
24522;DHT22;12680;57.804;12.190;2024-02-15T15:28:48;6.00;99.90
24522;DHT22;12680;57.804;12.190;2024-02-15T15:31:15;6.00;99.90
24522;DHT22;12680;57.804;12.190;2024-02-15T15:33:43;6.00;99.90
24522;DHT22;12680;57.804;12.190;2024-02-15T15:36:10;6.00;99.90
24522;DHT22;12680;57.804;12.190;2024-02-15T15:38:38;6.00;99.90
24522;DHT22;12680;57.804;12.190;2024-02-15T15:41:07;6.00;99.90
24522;DHT22;12680;57.804;12.190;2024-02-15T15:43:36;6.00;99.90
24522;DHT22;12680;57.804;12.190;2024-02-15T15:46:04;5.90;99.90
24522;DHT22;12680;57.804;12.190;2024-02-15T15:48:32;5.90;99.90
24522;DHT22;12680;57.804;12.190;2024-02-15T15:56:01;5.90;99.90
24522;DHT22;12680;57.804;12.190;2024-02-15T15:58:28;5.80;99.90
24522;DHT22;12680;57.804;12.190;2024-02-15T16:00:55;5.80;99.90
24522;DHT22;12680;57.804;12.190;2024-02-15T16:03:23;5.70;99.90
24522;DHT22;12680;57.804;12.190;2024-02-15T16:05:50;5.70;99.90
24522;DHT22;12680;57.804;12.190;2024-02-15T16:08:17;5.70;99.90
24522;DHT22;12680;57.804;12.190;2024-02-15T16:10:44;5.70;99.90